»·PEaware :: N91E KSLC-KENV

N91E :: KSLC-KENV

FLIGHT INFORMATION

Flight Status: Arrived
Operator: Privately registered:
United States
More flights under this callsign
Pilot: Dominic B. (18944)
Aircraft: MCDONNELL-DOUGLAS SKYTRAIN C-47
(DC3)
More flights by this aircraft type
Origin: KSLC Salt Lake City Intl
United States
Destination: KENV Wendover
United States
More flights between these airports :: More routes between these airports
Route: TCH V32 BVL
File this flight plan on PilotEdge
Remarks: RMK / SIMBRIEF
Altitude:
(Current/Filed)
10,000ft
Speed:
(Current/Filed)
143kts
Departed: 03-Nov-20 02:46 PM
Arrived: 03-Nov-20 03:29 PM
Distance/Time
Traveled:
94nm/0:42
Distance/Time
To Go:
Arrived

Flight Plot

Page will automatically refresh every two minutes.

Flight plan parsing failed; only flown route is shown


Map Options




Map Legend


Flown Route
Filed Route
Departure Airport
Arrival Airport
Navaid (VOR, NDB)
Fix

Horizontal Profiles

Position Reports

Time Latitude Longitude Heading Altitude Ground
Speed
03-Nov-20 13:58 40.773920 -111.957008 270 4235ft 0kts
03-Nov-20 13:59 40.773920 -111.957008 270 4235ft 0kts
03-Nov-20 14:00 40.773920 -111.957008 270 4235ft 0kts
03-Nov-20 14:01 40.773920 -111.957008 270 4235ft 0kts
03-Nov-20 14:02 40.773920 -111.957008 270 4235ft 0kts
03-Nov-20 14:03 40.773920 -111.957008 270 4235ft 0kts
03-Nov-20 14:04 40.773920 -111.957008 270 4235ft 0kts
03-Nov-20 14:05 40.773920 -111.957008 270 4235ft 0kts
03-Nov-20 14:06 40.773920 -111.957008 270 4235ft 0kts
03-Nov-20 14:07 40.773920 -111.957008 270 4235ft 0kts
03-Nov-20 14:08 40.773920 -111.957008 270 4235ft 0kts
03-Nov-20 14:09 40.773920 -111.957008 270 4235ft 0kts
03-Nov-20 14:10 40.773920 -111.957008 270 4235ft 0kts
03-Nov-20 14:11 40.773920 -111.957008 270 4235ft 0kts
03-Nov-20 14:12 40.773920 -111.957008 270 4235ft 0kts
03-Nov-20 14:13 40.773920 -111.957008 270 4235ft 0kts
03-Nov-20 14:14 40.773920 -111.957008 270 4235ft 0kts
03-Nov-20 14:15 40.773920 -111.957008 270 4235ft 0kts
03-Nov-20 14:16 40.773920 -111.957008 270 4235ft 0kts
03-Nov-20 14:17 40.773920 -111.957008 270 4235ft 0kts
03-Nov-20 14:18 40.773920 -111.957008 270 4235ft 0kts
03-Nov-20 14:19 40.773920 -111.957008 270 4235ft 0kts
03-Nov-20 14:20 40.773920 -111.957008 270 4235ft 0kts
03-Nov-20 14:21 40.773920 -111.957008 270 4235ft 0kts
03-Nov-20 14:22 40.773920 -111.957008 270 4235ft 0kts
03-Nov-20 14:23 40.773920 -111.957008 270 4235ft 0kts
03-Nov-20 14:24 40.773920 -111.957008 270 4235ft 0kts
03-Nov-20 14:25 40.773920 -111.957008 270 4235ft 0kts
03-Nov-20 14:26 40.773920 -111.957008 270 4235ft 0kts
03-Nov-20 14:27 40.773920 -111.957008 270 4235ft 0kts
03-Nov-20 14:28 40.773920 -111.957008 270 4235ft 0kts
03-Nov-20 14:29 40.773920 -111.957008 269 4235ft 0kts
03-Nov-20 14:30 40.773920 -111.957008 269 4235ft 0kts
03-Nov-20 14:31 40.773920 -111.957008 269 4235ft 0kts
03-Nov-20 14:32 40.773920 -111.957008 269 4235ft 0kts
03-Nov-20 14:33 40.773920 -111.957008 269 4235ft 0kts
03-Nov-20 14:34 40.773920 -111.957008 269 4235ft 0kts
03-Nov-20 14:35 40.773920 -111.957008 269 4235ft 0kts
03-Nov-20 14:36 40.773920 -111.957008 269 4235ft 0kts
03-Nov-20 14:37 40.773920 -111.957008 269 4235ft 0kts
03-Nov-20 14:38 40.773920 -111.957020 270 4235ft 0kts
03-Nov-20 14:39 40.774189 -111.958180 267 4235ft 6kts
03-Nov-20 14:40 40.773870 -111.960640 175 4235ft 7kts
03-Nov-20 14:41 40.772713 -111.960887 272 4235ft 0kts
03-Nov-20 14:42 40.772713 -111.960887 272 4235ft 0kts
03-Nov-20 14:43 40.772717 -111.961035 271 4235ft 2kts
03-Nov-20 14:44 40.773763 -111.962079 0 4235ft 14kts
03-Nov-20 14:45 40.795747 -111.962259 353 4671ft 110kts
03-Nov-20 14:46 40.825242 -111.977810 333 5679ft 119kts
03-Nov-20 14:47 40.855802 -111.996917 331 6646ft 124kts
03-Nov-20 14:48 40.887166 -112.017121 331 7566ft 127kts
03-Nov-20 14:49 40.919025 -112.037136 331 8453ft 126kts
03-Nov-20 14:50 40.950388 -112.057158 307 9271ft 122kts
03-Nov-20 14:51 40.942838 -112.092863 238 10095ft 108kts
03-Nov-20 14:52 40.926943 -112.138509 245 10059ft 151kts
03-Nov-20 14:53 40.911048 -112.190332 245 10056ft 152kts
03-Nov-20 14:54 40.895071 -112.242054 245 10056ft 151kts
03-Nov-20 14:55 40.879127 -112.293718 245 10055ft 151kts
03-Nov-20 14:56 40.863187 -112.345400 245 10054ft 151kts
03-Nov-20 14:57 40.847273 -112.396911 245 10056ft 152kts
03-Nov-20 14:58 40.831207 -112.448854 245 10056ft 152kts
03-Nov-20 14:59 40.817237 -112.501322 263 10057ft 152kts
03-Nov-20 15:00 40.813318 -112.557247 262 10055ft 153kts
03-Nov-20 15:01 40.809560 -112.613455 262 10055ft 153kts
03-Nov-20 15:02 40.805807 -112.669472 261 10032ft 154kts
03-Nov-20 15:03 40.802000 -112.725993 261 10028ft 154kts
03-Nov-20 15:04 40.798191 -112.782146 261 10028ft 153kts
03-Nov-20 15:05 40.793924 -112.838192 261 10030ft 153kts
03-Nov-20 15:06 40.789967 -112.894336 262 10032ft 154kts
03-Nov-20 15:07 40.786037 -112.950697 262 10034ft 154kts
03-Nov-20 15:08 40.782106 -113.006871 262 10036ft 154kts
03-Nov-20 15:09 40.778122 -113.063344 262 10038ft 155kts
03-Nov-20 15:10 40.774102 -113.120047 262 10038ft 155kts
03-Nov-20 15:11 40.770052 -113.176737 262 10037ft 155kts
03-Nov-20 15:12 40.765970 -113.233478 262 10038ft 155kts
03-Nov-20 15:13 40.761863 -113.290176 262 10037ft 155kts
03-Nov-20 15:14 40.757738 -113.346714 262 10037ft 155kts
03-Nov-20 15:15 40.753456 -113.403503 262 10037ft 155kts
03-Nov-20 15:16 40.749119 -113.460012 262 10037ft 155kts
03-Nov-20 15:17 40.744821 -113.517317 262 9846ft 161kts
03-Nov-20 15:18 40.739953 -113.576916 262 9228ft 165kts
03-Nov-20 15:19 40.738527 -113.636793 270 8817ft 158kts
03-Nov-20 15:20 40.741062 -113.694454 269 8449ft 156kts
03-Nov-20 15:21 40.743093 -113.747408 272 8514ft 140kts
03-Nov-20 15:22 40.739396 -113.797308 255 8157ft 132kts
03-Nov-20 15:23 40.732220 -113.844094 258 7760ft 128kts
03-Nov-20 15:24 40.725022 -113.889355 251 7070ft 119kts
03-Nov-20 15:25 40.718474 -113.929253 266 5653ft 111kts
03-Nov-20 15:27 40.718964 -113.967398 271 4739ft 96kts
03-Nov-20 15:28 40.718867 -113.999633 269 4342ft 83kts
03-Nov-20 15:29 40.718774 -114.024354 282 4227ft 22kts
03-Nov-20 15:30 40.720056 -114.025196 267 4227ft 4kts
03-Nov-20 15:31 40.720020 -114.028029 270 4230ft 12kts
03-Nov-20 15:32 40.721502 -114.034782 314 4230ft 25kts
03-Nov-20 15:33 40.726872 -114.040384 36 4238ft 16kts
03-Nov-20 15:34 40.727396 -114.037425 71 4238ft 0kts
03-Nov-20 15:35 40.727396 -114.037425 71 4238ft 0kts

Navigation Log

Ident Type
Flight plan parsing failed, navigation log unavailable